Time;durP1;ratioP1;P1;durP2;ratioP2;P2;SDS_P1;SDS_P2;PMS_P1;PMS_P2;Temp;Humidity;BMP_temperature;BMP_pressure;BME280_temperature;BME280_humidity;BME280_pressure;Samples;Min_cycle;Max_cycle;Signal;HPM_P1;HPM_P2
2022/03/03 00:00:09;;;;;;;2.93;2.73;;;18.10;37.60;;;;;;5029962;28;20614;-59
2022/03/03 00:02:34;;;;;;;2.93;2.73;;;18.10;37.60;;;;;;5027850;28;20912;-59
2022/03/03 00:05:00;;;;;;;3.07;2.87;;;18.20;37.60;;;;;;5028229;28;20519;-58
2022/03/03 00:07:25;;;;;;;3.40;2.77;;;18.10;37.60;;;;;;5029351;28;20310;-58
2022/03/03 00:09:51;;;;;;;3.00;2.80;;;18.10;37.60;;;;;;5027417;28;20664;-59
2022/03/03 00:12:17;;;;;;;3.50;3.30;;;18.10;37.60;;;;;;5027874;28;20223;-59
2022/03/03 00:14:42;;;;;;;2.80;2.60;;;18.10;37.60;;;;;;5025650;28;20230;-59
2022/03/03 00:17:08;;;;;;;3.00;2.70;;;18.10;37.60;;;;;;5029470;28;20215;-59
2022/03/03 00:19:34;;;;;;;3.20;3.00;;;18.10;37.60;;;;;;5027138;28;20225;-59
2022/03/03 00:21:59;;;;;;;3.10;2.90;;;18.10;37.60;;;;;;5027858;28;20221;-58
2022/03/03 00:24:25;;;;;;;2.80;2.60;;;18.10;37.60;;;;;;5027930;28;20664;-59
2022/03/03 00:26:51;;;;;;;2.67;2.53;;;18.10;37.60;;;;;;5028079;28;20208;-58
2022/03/03 00:29:17;;;;;;;2.90;2.70;;;18.10;37.60;;;;;;5029329;28;20700;-58
2022/03/03 00:31:42;;;;;;;3.10;2.90;;;18.10;37.60;;;;;;5027994;28;20211;-59
2022/03/03 00:34:08;;;;;;;2.80;2.60;;;18.10;37.60;;;;;;5029380;28;20443;-58
2022/03/03 00:36:34;;;;;;;3.20;3.00;;;18.10;37.60;;;;;;5027027;28;20215;-59
2022/03/03 00:39:00;;;;;;;2.70;2.60;;;18.10;37.60;;;;;;5023433;28;20573;-59
2022/03/03 00:41:26;;;;;;;2.80;2.60;;;18.10;37.60;;;;;;5028720;28;20449;-58
2022/03/03 00:43:51;;;;;;;3.10;2.90;;;18.10;37.60;;;;;;5026845;28;20451;-58
2022/03/03 00:46:18;;;;;;;3.03;2.83;;;18.10;37.60;;;;;;5026319;28;20739;-58
2022/03/03 00:48:43;;;;;;;2.77;2.60;;;18.10;37.60;;;;;;5029312;28;20227;-59
2022/03/03 00:51:09;;;;;;;3.10;2.90;;;18.10;37.60;;;;;;5028273;28;20798;-59
2022/03/03 00:53:37;;;;;;;2.63;2.53;;;18.10;37.60;;;;;;5026701;28;20725;-58
2022/03/03 00:56:03;;;;;;;2.93;2.73;;;18.10;37.60;;;;;;5027172;28;20313;-59
2022/03/03 00:58:29;;;;;;;3.17;2.97;;;18.10;37.60;;;;;;5027032;28;20460;-59
2022/03/03 01:00:55;;;;;;;2.80;2.60;;;18.10;37.60;;;;;;5029255;28;20430;-58
2022/03/03 01:03:20;;;;;;;2.70;2.50;;;18.10;37.60;;;;;;5029529;28;20219;-59
2022/03/03 01:05:46;;;;;;;2.77;2.63;;;18.10;37.60;;;;;;5026113;28;20211;-58
2022/03/03 01:08:12;;;;;;;2.80;2.70;;;18.10;37.60;;;;;;5029824;28;20218;-58
2022/03/03 01:10:39;;;;;;;2.87;2.77;;;18.10;37.60;;;;;;5027317;28;20695;-59
2022/03/03 01:13:05;;;;;;;3.07;2.87;;;18.10;37.60;;;;;;5026913;28;20447;-59
2022/03/03 01:15:30;;;;;;;2.90;2.70;;;18.10;37.60;;;;;;5028493;28;20444;-58
2022/03/03 01:17:56;;;;;;;5.60;2.73;;;18.10;37.60;;;;;;5023234;28;20238;-59
2022/03/03 01:20:22;;;;;;;3.20;3.00;;;18.10;37.60;;;;;;5029305;28;20231;-58
2022/03/03 01:22:47;;;;;;;3.27;3.07;;;18.10;38.30;;;;;;5026692;28;20241;-58
2022/03/03 01:25:13;;;;;;;3.20;3.00;;;18.10;37.60;;;;;;5026059;28;20219;-58
2022/03/03 01:27:39;;;;;;;3.20;3.00;;;18.10;37.60;;;;;;5026516;28;20899;-59
2022/03/03 01:30:07;;;;;;;2.90;2.70;;;18.10;37.60;;;;;;5026444;28;20289;-59
2022/03/03 01:32:33;;;;;;;3.10;2.90;;;18.10;37.60;;;;;;5025813;28;20492;-59
2022/03/03 01:34:59;;;;;;;2.87;2.77;;;18.10;37.60;;;;;;5025368;28;20423;-58
2022/03/03 01:37:25;;;;;;;3.03;2.83;;;18.10;37.60;;;;;;5025169;28;20226;-59
2022/03/03 01:39:50;;;;;;;3.27;3.07;;;18.10;37.60;;;;;;5027812;28;20519;-58
2022/03/03 01:42:17;;;;;;;3.40;3.10;;;18.10;37.60;;;;;;5029352;28;20731;-59
2022/03/03 01:44:44;;;;;;;3.17;2.97;;;18.10;37.60;;;;;;5027018;28;20226;-59
2022/03/03 01:47:21;;;;;;;2.60;2.50;;;18.10;37.60;;;;;;5025581;28;20447;-59
2022/03/03 01:49:49;;;;;;;3.30;3.10;;;18.10;37.60;;;;;;5024681;28;20447;-59
2022/03/03 01:52:16;;;;;;;2.97;2.80;;;18.10;37.60;;;;;;5028506;28;20414;-58
2022/03/03 01:54:42;;;;;;;3.30;3.10;;;18.10;37.60;;;;;;5026658;28;20430;-59
2022/03/03 01:57:09;;;;;;;3.77;2.83;;;18.10;37.60;;;;;;5027561;28;20444;-59
2022/03/03 01:59:35;;;;;;;3.10;2.90;;;18.10;37.60;;;;;;5027457;28;20513;-59
2022/03/03 02:02:03;;;;;;;2.80;2.60;;;18.10;37.60;;;;;;5025463;28;20461;-59
2022/03/03 02:04:29;;;;;;;3.30;3.03;;;18.10;37.60;;;;;;5026104;28;20422;-59
2022/03/03 02:06:55;;;;;;;3.07;2.87;;;18.10;37.60;;;;;;5029152;28;21190;-59
2022/03/03 02:09:21;;;;;;;3.20;3.10;;;18.10;37.60;;;;;;5026154;28;20431;-59
2022/03/03 02:11:47;;;;;;;2.50;2.30;;;18.10;37.60;;;;;;5028794;28;20222;-59
2022/03/03 02:14:14;;;;;;;2.90;2.70;;;18.10;37.60;;;;;;5025678;28;20238;-58
2022/03/03 02:16:39;;;;;;;2.53;2.40;;;18.10;37.60;;;;;;5025403;28;20446;-59
2022/03/03 02:19:05;;;;;;;2.57;2.47;;;18.10;37.60;;;;;;5030248;28;20485;-59
2022/03/03 02:21:31;;;;;;;3.27;3.07;;;18.10;37.60;;;;;;5031986;28;20223;-59
2022/03/03 02:23:57;;;;;;;2.60;2.47;;;18.10;37.60;;;;;;5030070;28;20429;-58
2022/03/03 02:26:23;;;;;;;3.20;3.00;;;18.10;37.60;;;;;;5032095;28;20292;-58
2022/03/03 02:28:51;;;;;;;2.93;2.77;;;18.10;37.60;;;;;;5029802;28;20581;-59
2022/03/03 02:31:18;;;;;;;3.10;2.87;;;18.10;37.60;;;;;;5031188;28;20423;-59
2022/03/03 02:33:44;;;;;;;4.13;2.70;;;18.10;37.60;;;;;;5032097;28;20439;-59
2022/03/03 02:36:19;;;;;;;3.20;3.00;;;18.10;37.60;;;;;;5029617;28;20931;-59
2022/03/03 02:38:45;;;;;;;2.80;2.60;;;18.10;37.60;;;;;;5030875;28;20443;-59
2022/03/03 02:41:11;;;;;;;2.90;2.70;;;18.10;37.60;;;;;;5028809;28;20765;-59
2022/03/03 02:43:37;;;;;;;3.00;2.80;;;18.00;37.50;;;;;;5031398;28;20448;-58
2022/03/03 02:46:04;;;;;;;2.97;2.87;;;18.10;38.30;;;;;;5032210;28;20664;-59
2022/03/03 02:48:30;;;;;;;3.00;2.80;;;18.10;37.60;;;;;;5029607;28;20241;-59
2022/03/03 02:50:56;;;;;;;3.27;3.07;;;18.10;37.60;;;;;;5031547;28;20468;-59
2022/03/03 02:53:21;;;;;;;3.23;3.03;;;18.10;37.60;;;;;;5030924;28;20496;-59
2022/03/03 02:55:47;;;;;;;3.00;2.80;;;18.10;37.60;;;;;;5030602;28;20273;-58
2022/03/03 02:58:13;;;;;;;3.10;2.90;;;18.10;37.60;;;;;;5031234;28;20230;-59
2022/03/03 03:00:42;;;;;;;3.20;3.00;;;18.10;37.60;;;;;;5029669;28;20464;-58
2022/03/03 03:03:11;;;;;;;3.20;3.00;;;18.10;37.60;;;;;;5029532;28;20988;-59
2022/03/03 03:05:37;;;;;;;3.33;3.13;;;18.00;37.50;;;;;;5028511;28;21022;-59
2022/03/03 03:08:04;;;;;;;3.00;2.80;;;18.10;38.30;;;;;;5030111;28;20435;-58
2022/03/03 03:10:30;;;;;;;2.87;2.67;;;18.10;37.60;;;;;;5030887;28;20298;-58
2022/03/03 03:12:56;;;;;;;3.00;2.80;;;18.00;38.20;;;;;;5030171;28;20427;-59
2022/03/03 03:15:22;;;;;;;3.10;2.80;;;18.10;37.60;;;;;;5030896;28;20991;-58
2022/03/03 03:17:48;;;;;;;3.37;3.07;;;18.00;37.50;;;;;;5024864;28;20511;-59
2022/03/03 03:20:14;;;;;;;3.40;3.20;;;18.00;37.50;;;;;;5030577;28;20320;-59
2022/03/03 03:22:39;;;;;;;3.00;2.70;;;18.00;37.50;;;;;;5028742;28;20247;-59
2022/03/03 03:25:07;;;;;;;3.00;2.80;;;18.00;37.50;;;;;;5031445;28;20576;-59
2022/03/03 03:27:33;;;;;;;3.47;3.27;;;18.00;37.50;;;;;;5029563;28;20226;-59
2022/03/03 03:29:59;;;;;;;3.10;2.90;;;18.10;37.60;;;;;;5027814;28;21388;-58
2022/03/03 03:32:25;;;;;;;2.80;2.70;;;18.00;37.50;;;;;;5028352;28;20273;-58
2022/03/03 03:34:51;;;;;;;2.73;2.60;;;18.00;37.50;;;;;;5031025;28;20435;-59
2022/03/03 03:37:16;;;;;;;3.10;2.90;;;18.00;37.50;;;;;;5025286;28;20223;-59
2022/03/03 03:39:42;;;;;;;3.23;3.03;;;18.00;37.50;;;;;;5028486;28;20207;-58
2022/03/03 03:42:08;;;;;;;3.47;3.27;;;18.00;37.50;;;;;;5026840;28;20211;-59
2022/03/03 03:44:34;;;;;;;3.13;2.93;;;18.00;37.50;;;;;;5024178;28;20531;-59
2022/03/03 03:47:00;;;;;;;3.10;2.80;;;18.00;37.50;;;;;;5026995;28;20277;-59
2022/03/03 03:49:26;;;;;;;3.50;3.30;;;18.10;37.60;;;;;;5027087;28;20407;-59
2022/03/03 03:51:51;;;;;;;2.97;2.80;;;18.00;37.50;;;;;;5028347;28;20265;-58
2022/03/03 03:54:17;;;;;;;3.07;2.87;;;18.00;37.50;;;;;;5029533;28;20668;-59
2022/03/03 03:56:42;;;;;;;3.00;2.80;;;18.00;37.50;;;;;;5031168;28;20219;-59
2022/03/03 03:59:08;;;;;;;3.20;3.00;;;18.00;37.50;;;;;;5024090;28;20222;-59
2022/03/03 04:01:33;;;;;;;3.00;2.80;;;18.00;37.50;;;;;;5030058;28;20232;-59
2022/03/03 04:03:59;;;;;;;3.10;2.90;;;18.00;37.50;;;;;;5027881;28;20239;-58
2022/03/03 04:06:24;;;;;;;3.40;3.20;;;18.00;37.50;;;;;;5030011;28;20219;-59
2022/03/03 04:08:50;;;;;;;3.23;3.03;;;18.10;37.60;;;;;;5027758;28;20215;-59
2022/03/03 04:11:16;;;;;;;2.83;2.73;;;18.00;37.50;;;;;;5029461;28;20211;-58
2022/03/03 04:13:41;;;;;;;3.33;3.13;;;18.00;37.50;;;;;;5029978;28;20231;-58
2022/03/03 04:16:07;;;;;;;2.90;2.70;;;18.00;37.50;;;;;;5027775;28;20226;-59
2022/03/03 04:18:32;;;;;;;3.00;2.80;;;18.00;37.50;;;;;;5027378;28;20219;-58
2022/03/03 04:20:58;;;;;;;2.97;2.80;;;18.00;37.50;;;;;;5027573;28;20222;-58
2022/03/03 04:23:23;;;;;;;2.60;2.50;;;18.00;37.50;;;;;;5028900;28;20211;-59
2022/03/03 04:25:49;;;;;;;3.50;3.30;;;18.00;37.50;;;;;;5029049;28;20246;-59
2022/03/03 04:28:15;;;;;;;2.77;2.63;;;18.00;37.50;;;;;;5029684;28;20217;-59
2022/03/03 04:30:40;;;;;;;2.70;2.50;;;18.00;37.50;;;;;;5030148;28;20261;-59
2022/03/03 04:33:06;;;;;;;3.27;3.07;;;18.00;37.50;;;;;;5024646;28;20243;-59
2022/03/03 04:35:31;;;;;;;2.70;2.50;;;18.00;37.50;;;;;;5028174;28;20215;-59
2022/03/03 04:37:57;;;;;;;2.53;2.43;;;18.00;37.50;;;;;;5029828;28;20696;-59
2022/03/03 04:40:23;;;;;;;2.87;2.67;;;18.00;37.50;;;;;;5026636;28;20212;-60
2022/03/03 04:42:52;;;;;;;2.60;2.43;;;18.00;37.50;;;;;;5026488;28;20450;-59
2022/03/03 04:45:18;;;;;;;3.00;2.80;;;18.00;37.50;;;;;;5025169;28;20555;-59
2022/03/03 04:47:44;;;;;;;2.77;2.60;;;18.00;37.50;;;;;;5026951;28;20544;-58
2022/03/03 04:50:10;;;;;;;3.47;3.27;;;18.00;37.50;;;;;;5026900;28;20446;-60
2022/03/03 04:52:36;;;;;;;3.00;2.80;;;18.00;37.50;;;;;;5029594;28;20294;-59
2022/03/03 04:55:04;;;;;;;2.70;2.60;;;18.00;37.50;;;;;;5029611;28;20501;-59
2022/03/03 04:57:31;;;;;;;3.00;2.80;;;18.10;37.60;;;;;;5027403;28;20428;-59
2022/03/03 04:59:57;;;;;;;2.53;2.43;;;18.00;37.50;;;;;;5028883;28;20427;-59
2022/03/03 05:02:23;;;;;;;3.10;2.90;;;18.10;37.60;;;;;;5028701;28;20455;-59
2022/03/03 05:04:48;;;;;;;2.93;2.73;;;18.00;37.50;;;;;;5024475;28;20207;-59
2022/03/03 05:07:14;;;;;;;3.10;2.90;;;18.00;37.50;;;;;;5027337;28;20230;-58
2022/03/03 05:09:40;;;;;;;2.80;2.60;;;18.00;37.50;;;;;;5029044;28;20215;-59
2022/03/03 05:12:06;;;;;;;3.03;2.87;;;18.00;37.50;;;;;;5025988;28;20302;-59
2022/03/03 05:14:31;;;;;;;2.63;2.40;;;18.10;37.60;;;;;;5026941;28;20245;-59
2022/03/03 05:16:57;;;;;;;3.17;2.97;;;18.10;37.60;;;;;;5029049;28;20431;-59
2022/03/03 05:19:22;;;;;;;3.30;3.00;;;18.10;37.90;;;;;;5028893;28;20231;-58
2022/03/03 05:21:48;;;;;;;3.07;2.87;;;18.10;37.60;;;;;;5028815;28;20295;-59
2022/03/03 05:24:14;;;;;;;2.93;2.73;;;18.10;37.60;;;;;;5028846;28;20231;-60
2022/03/03 05:26:39;;;;;;;3.00;2.67;;;18.10;37.60;;;;;;5027875;28;20207;-60
2022/03/03 05:29:05;;;;;;;3.20;3.00;;;18.10;37.60;;;;;;5028584;28;20628;-61
2022/03/03 05:31:30;;;;;;;2.83;2.63;;;18.10;37.60;;;;;;5027100;28;20219;-61
2022/03/03 05:33:56;;;;;;;3.20;3.00;;;18.10;37.40;;;;;;5024329;28;20241;-61
2022/03/03 05:36:24;;;;;;;3.03;2.83;;;18.20;37.30;;;;;;5027384;28;20211;-59
2022/03/03 05:38:52;;;;;;;2.90;2.80;;;18.20;37.20;;;;;;5026085;28;20220;-60
2022/03/03 05:41:17;;;;;;;2.43;2.23;;;18.20;37.10;;;;;;5025687;28;20420;-59
2022/03/03 05:43:43;;;;;;;2.97;2.77;;;18.20;37.10;;;;;;5024344;28;20460;-58
2022/03/03 05:46:09;;;;;;;2.53;2.43;;;18.30;37.00;;;;;;5028052;28;20223;-61
2022/03/03 05:48:34;;;;;;;3.00;2.90;;;18.30;37.00;;;;;;5025457;28;20261;-59
2022/03/03 05:51:00;;;;;;;2.63;2.53;;;18.30;37.00;;;;;;5027877;28;20300;-59
2022/03/03 05:53:26;;;;;;;3.37;3.17;;;18.30;37.00;;;;;;5026012;28;20235;-59
2022/03/03 05:55:59;;;;;;;2.77;2.57;;;18.30;37.00;;;;;;5024598;28;20229;-59
2022/03/03 05:58:42;;;;;;;3.20;3.00;;;18.30;37.00;;;;;;5026187;28;20780;-59
2022/03/03 06:01:10;;;;;;;2.93;2.80;;;18.30;37.00;;;;;;5027395;28;20445;-58
2022/03/03 06:03:36;;;;;;;2.93;2.73;;;18.30;37.00;;;;;;5024777;28;20434;-59
2022/03/03 06:06:21;;;;;;;3.67;3.37;;;18.30;37.00;;;;;;5027388;28;20419;-59
2022/03/03 06:09:07;;;;;;;3.00;2.80;;;18.30;37.00;;;;;;5027999;28;20653;-59
2022/03/03 06:11:41;;;;;;;3.13;2.93;;;18.30;37.00;;;;;;5026355;28;20488;-59
2022/03/03 06:14:08;;;;;;;7.03;3.10;;;18.30;37.00;;;;;;5025352;28;20443;-61
2022/03/03 06:16:35;;;;;;;3.00;2.80;;;18.30;37.00;;;;;;5028924;28;20411;-59
2022/03/03 06:19:02;;;;;;;4.23;2.90;;;18.30;37.00;;;;;;5027207;28;20484;-59
2022/03/03 06:21:28;;;;;;;2.87;2.67;;;18.30;37.00;;;;;;5028507;28;20885;-59
2022/03/03 06:23:54;;;;;;;2.93;2.73;;;18.30;37.00;;;;;;5022812;28;20427;-61
2022/03/03 06:26:20;;;;;;;3.03;2.83;;;18.30;37.00;;;;;;5016434;28;20266;-61
2022/03/03 06:28:47;;;;;;;3.30;3.10;;;18.30;37.00;;;;;;5020008;28;20223;-60
2022/03/03 06:31:13;;;;;;;3.20;3.00;;;18.30;36.90;;;;;;5016558;28;20481;-59
2022/03/03 06:33:40;;;;;;;2.80;2.60;;;18.30;36.90;;;;;;5021397;28;20468;-59
2022/03/03 06:36:07;;;;;;;4.37;3.97;;;18.30;37.00;;;;;;5025384;28;20444;-59
2022/03/03 06:38:33;;;;;;;3.30;3.10;;;18.30;36.90;;;;;;5023896;28;20974;-59
2022/03/03 06:40:59;;;;;;;3.30;3.10;;;18.30;36.80;;;;;;5024140;28;20449;-58
2022/03/03 06:43:27;;;;;;;2.73;2.53;;;18.30;36.70;;;;;;5025208;28;20439;-59
2022/03/03 06:45:53;;;;;;;2.90;2.70;;;18.30;36.80;;;;;;5024438;28;20285;-59
2022/03/03 06:48:18;;;;;;;3.10;2.90;;;18.30;36.80;;;;;;5024529;28;20943;-59
2022/03/03 06:50:46;;;;;;;3.20;2.67;;;18.30;36.90;;;;;;5027158;28;20296;-58
2022/03/03 06:53:12;;;;;;;3.70;3.40;;;18.30;36.80;;;;;;5026091;28;20255;-58
2022/03/03 06:55:38;;;;;;;3.40;2.90;;;18.30;36.90;;;;;;5021519;28;20427;-58
2022/03/03 06:58:04;;;;;;;2.97;2.77;;;18.30;36.90;;;;;;5026303;28;20746;-58
2022/03/03 07:00:33;;;;;;;3.50;3.20;;;18.30;36.90;;;;;;5025908;28;20285;-59
2022/03/03 07:03:01;;;;;;;3.03;2.83;;;18.30;36.80;;;;;;5019841;28;20472;-59
2022/03/03 07:05:28;;;;;;;2.70;2.50;;;18.30;36.90;;;;;;5029222;28;20755;-59
2022/03/03 07:07:55;;;;;;;3.00;2.80;;;18.30;37.60;;;;;;5031198;28;20442;-58
2022/03/03 07:10:25;;;;;;;3.43;3.23;;;18.30;36.90;;;;;;5029590;28;20469;-58
2022/03/03 07:12:55;;;;;;;2.93;2.73;;;18.20;36.80;;;;;;5029523;28;20430;-58
2022/03/03 07:15:23;;;;;;;3.50;3.30;;;18.30;36.90;;;;;;5029257;28;20495;-58
2022/03/03 07:17:51;;;;;;;3.50;3.30;;;18.20;36.80;;;;;;5029978;28;20443;-58
2022/03/03 07:20:39;;;;;;;2.97;2.77;;;18.20;36.80;;;;;;5028266;28;20738;-58
2022/03/03 07:23:16;;;;;;;2.80;2.60;;;18.20;36.80;;;;;;5027603;28;20442;-59
2022/03/03 07:25:49;;;;;;;3.37;3.17;;;18.20;36.80;;;;;;5028603;28;20422;-58
2022/03/03 07:28:17;;;;;;;3.40;3.07;;;18.20;36.80;;;;;;5025288;28;20423;-58
2022/03/03 07:30:43;;;;;;;3.20;3.00;;;18.30;36.90;;;;;;5030892;28;20446;-58
2022/03/03 07:33:35;;;;;;;2.70;2.50;;;18.20;37.50;;;;;;5026489;28;20739;-59
2022/03/03 07:36:02;;;;;;;5.47;3.60;;;18.20;36.80;;;;;;5027905;28;20756;-58
2022/03/03 07:38:34;;;;;;;3.13;2.93;;;18.20;36.80;;;;;;5027030;28;20453;-59
2022/03/03 07:41:01;;;;;;;3.40;2.93;;;18.20;36.80;;;;;;5026818;28;20476;-58
2022/03/03 07:43:27;;;;;;;3.47;3.17;;;18.20;36.80;;;;;;5029755;28;20451;-59
2022/03/03 07:45:52;;;;;;;2.80;2.60;;;18.20;36.80;;;;;;5029923;28;20500;-58
2022/03/03 07:48:22;;;;;;;3.30;3.10;;;18.20;36.80;;;;;;5027803;28;20227;-58
2022/03/03 07:50:48;;;;;;;3.43;2.67;;;18.20;36.80;;;;;;5025075;28;20231;-59
2022/03/03 07:53:13;;;;;;;3.30;3.10;;;18.20;36.80;;;;;;5030108;28;20481;-58
2022/03/03 07:55:45;;;;;;;3.00;2.80;;;18.20;36.70;;;;;;5030418;28;20245;-59
2022/03/03 07:58:19;;;;;;;2.83;2.63;;;18.20;36.80;;;;;;5028164;28;20222;-59
2022/03/03 08:00:53;;;;;;;3.17;2.97;;;18.20;36.80;;;;;;5029431;28;20418;-59
2022/03/03 08:03:20;;;;;;;3.30;3.10;;;18.20;36.70;;;;;;5023264;28;20418;-59
2022/03/03 08:05:49;;;;;;;3.13;2.93;;;18.20;36.80;;;;;;5029589;28;20450;-58
2022/03/03 08:08:19;;;;;;;2.97;2.77;;;18.20;36.70;;;;;;5027557;28;20968;-58
2022/03/03 08:10:46;;;;;;;3.40;3.20;;;18.20;36.70;;;;;;5028733;28;20448;-58
2022/03/03 08:13:16;;;;;;;3.33;3.13;;;18.20;36.70;;;;;;5024758;28;20511;-59
2022/03/03 08:15:43;;;;;;;4.00;3.60;;;18.30;36.80;;;;;;5027618;28;20449;-59
2022/03/03 08:18:10;;;;;;;3.23;3.03;;;18.20;36.70;;;;;;5025877;28;20431;-58
2022/03/03 08:20:38;;;;;;;2.80;2.60;;;18.20;36.70;;;;;;5025641;28;20797;-59
2022/03/03 08:23:05;;;;;;;3.63;3.33;;;18.20;36.70;;;;;;5029134;28;20461;-58
2022/03/03 08:25:31;;;;;;;2.93;2.63;;;18.30;36.80;;;;;;5026563;28;20814;-58
2022/03/03 08:27:57;;;;;;;3.20;3.00;;;18.30;36.80;;;;;;5027295;28;20475;-58
2022/03/03 08:30:23;;;;;;;3.00;2.80;;;18.30;36.80;;;;;;5029537;28;20432;-58
2022/03/03 08:33:05;;;;;;;3.60;3.40;;;18.20;36.80;;;;;;5023671;28;20493;-58
2022/03/03 08:35:36;;;;;;;2.80;2.60;;;18.30;36.80;;;;;;5025041;28;20230;-58
2022/03/03 08:38:21;;;;;;;2.60;2.40;;;18.30;36.80;;;;;;5023578;28;20448;-58
2022/03/03 08:40:50;;;;;;;3.33;2.80;;;18.30;36.80;;;;;;5027715;28;20903;-58
2022/03/03 08:43:20;;;;;;;3.10;2.90;;;18.30;36.80;;;;;;5027578;28;20987;-58
2022/03/03 08:45:48;;;;;;;3.10;2.63;;;18.30;36.80;;;;;;5025545;28;20418;-58
2022/03/03 08:48:14;;;;;;;3.00;2.80;;;18.30;36.80;;;;;;5028948;28;20461;-58
2022/03/03 08:50:41;;;;;;;11.53;3.57;;;18.20;36.70;;;;;;5028857;28;20411;-58
2022/03/03 08:53:08;;;;;;;3.27;3.07;;;18.30;36.80;;;;;;5027138;28;20912;-58
2022/03/03 08:55:37;;;;;;;2.83;2.63;;;18.30;36.80;;;;;;5028817;28;20506;-58
2022/03/03 08:58:03;;;;;;;3.40;3.20;;;18.30;36.80;;;;;;5028432;28;20490;-59
2022/03/03 09:00:30;;;;;;;3.10;2.90;;;18.30;36.80;;;;;;5026637;28;20466;-58
2022/03/03 09:02:57;;;;;;;3.33;3.13;;;18.30;37.60;;;;;;5026676;28;20911;-58
2022/03/03 09:05:22;;;;;;;3.03;2.83;;;18.30;36.80;;;;;;5023684;28;20423;-58
2022/03/03 09:07:48;;;;;;;2.80;2.60;;;18.30;36.80;;;;;;5029319;28;20423;-58
2022/03/03 09:10:15;;;;;;;2.93;2.73;;;18.30;36.80;;;;;;5022353;28;20695;-58
2022/03/03 09:12:41;;;;;;;2.87;2.67;;;18.30;36.80;;;;;;5028399;28;20249;-58
2022/03/03 09:15:07;;;;;;;3.00;2.80;;;18.30;36.90;;;;;;5028208;28;20461;-58
2022/03/03 09:17:35;;;;;;;2.93;2.73;;;18.30;36.80;;;;;;5027435;28;20424;-59
2022/03/03 09:20:01;;;;;;;2.53;2.43;;;18.30;36.80;;;;;;5027907;28;20423;-59
2022/03/03 09:22:27;;;;;;;3.20;3.00;;;18.30;36.80;;;;;;5026995;28;20438;-58
2022/03/03 09:24:54;;;;;;;3.30;3.10;;;18.30;36.80;;;;;;5026281;28;20468;-59
2022/03/03 09:27:20;;;;;;;2.90;2.70;;;18.30;36.90;;;;;;5027406;28;20211;-58
2022/03/03 09:29:45;;;;;;;3.00;2.80;;;18.30;36.90;;;;;;5028582;28;20433;-58
2022/03/03 09:32:13;;;;;;;2.83;2.63;;;18.30;36.80;;;;;;5027004;28;20313;-58
2022/03/03 09:34:39;;;;;;;3.17;2.97;;;18.30;36.90;;;;;;5027388;28;20233;-58
2022/03/03 09:37:05;;;;;;;2.70;2.50;;;18.30;36.90;;;;;;5026271;28;20427;-61
2022/03/03 09:39:30;;;;;;;2.97;2.77;;;18.30;36.90;;;;;;5023701;28;20427;-59
2022/03/03 09:41:56;;;;;;;2.73;2.60;;;18.30;36.90;;;;;;5026185;28;20223;-58
2022/03/03 09:44:26;;;;;;;3.20;3.00;;;18.30;36.90;;;;;;5024215;28;20736;-58
2022/03/03 09:46:53;;;;;;;3.00;2.80;;;18.30;36.90;;;;;;5027842;28;20239;-59
2022/03/03 09:49:19;;;;;;;3.33;2.97;;;18.20;36.80;;;;;;5027566;28;20430;-59
2022/03/03 09:51:47;;;;;;;3.20;3.00;;;18.30;37.80;;;;;;5028035;28;20445;-58
2022/03/03 09:54:13;;;;;;;2.93;2.60;;;18.30;36.90;;;;;;5038525;28;20237;-58
2022/03/03 09:56:38;;;;;;;3.37;2.97;;;18.20;36.80;;;;;;5024118;28;20436;-58
2022/03/03 09:59:05;;;;;;;2.57;2.47;;;18.20;36.80;;;;;;5027873;28;20661;-58
2022/03/03 10:01:32;;;;;;;2.53;2.43;;;18.20;36.80;;;;;;5024529;28;20274;-59
2022/03/03 10:04:12;;;;;;;3.13;2.93;;;18.20;36.90;;;;;;5022985;28;20468;-58
2022/03/03 10:06:42;;;;;;;3.27;3.07;;;18.20;36.90;;;;;;5024035;28;20437;-58
2022/03/03 10:09:09;;;;;;;2.80;2.60;;;18.20;36.90;;;;;;5021991;28;21043;-59
2022/03/03 10:12:03;;;;;;;4.00;2.60;;;18.20;37.00;;;;;;5028033;28;20755;-59
2022/03/03 10:14:31;;;;;;;3.20;3.00;;;18.20;36.90;;;;;;5025989;28;20451;-58
2022/03/03 10:16:57;;;;;;;4.57;2.97;;;18.20;37.00;;;;;;5024980;28;20423;-58
2022/03/03 10:19:23;;;;;;;2.90;2.70;;;18.20;37.00;;;;;;5026836;28;20485;-58
2022/03/03 10:21:49;;;;;;;2.83;2.63;;;18.20;37.00;;;;;;5025676;28;20290;-58
2022/03/03 10:24:21;;;;;;;2.80;2.60;;;18.20;37.00;;;;;;5024423;28;20419;-58
2022/03/03 10:26:59;;;;;;;2.83;2.63;;;18.20;37.00;;;;;;5022392;28;20444;-58
2022/03/03 10:29:26;;;;;;;2.60;2.40;;;18.20;37.10;;;;;;5025160;28;20911;-58
2022/03/03 10:31:53;;;;;;;3.50;3.30;;;18.20;37.10;;;;;;5027005;28;20415;-58
2022/03/03 10:34:35;;;;;;;2.60;2.40;;;18.20;37.10;;;;;;5026044;28;20919;-59
2022/03/03 10:37:07;;;;;;;3.03;2.83;;;18.20;37.10;;;;;;5023936;28;20766;-58
2022/03/03 10:39:40;;;;;;;3.13;2.93;;;18.20;37.10;;;;;;5030612;28;20454;-58
2022/03/03 10:42:36;;;;;;;2.60;2.40;;;18.20;37.10;;;;;;5029630;28;20989;-58
2022/03/03 10:45:16;;;;;;;2.73;2.53;;;18.20;37.10;;;;;;5023181;28;20929;-59
2022/03/03 10:47:57;;;;;;;3.10;2.90;;;18.20;37.20;;;;;;5030351;28;20845;-59
2022/03/03 10:50:23;;;;;;;2.80;2.60;;;18.20;37.20;;;;;;5030642;28;20430;-58
2022/03/03 10:52:48;;;;;;;2.90;2.70;;;18.20;37.20;;;;;;5030373;28;20437;-58
2022/03/03 10:55:16;;;;;;;2.77;2.57;;;18.20;37.20;;;;;;5031192;28;20357;-58
2022/03/03 10:57:54;;;;;;;2.93;2.73;;;18.20;37.20;;;;;;5028894;28;20216;-58
2022/03/03 11:00:25;;;;;;;2.77;2.63;;;18.20;37.20;;;;;;5028657;28;20449;-58
2022/03/03 11:02:59;;;;;;;2.87;2.67;;;18.20;37.20;;;;;;5030115;28;20460;-58
2022/03/03 11:05:27;;;;;;;2.73;2.60;;;18.20;37.20;;;;;;5028977;28;20946;-58
2022/03/03 11:07:53;;;;;;;2.70;2.50;;;18.20;37.30;;;;;;5026238;28;20419;-58
2022/03/03 11:10:24;;;;;;;3.17;2.97;;;18.20;37.20;;;;;;5029476;28;20512;-58
2022/03/03 11:12:50;;;;;;;2.80;2.60;;;18.20;37.30;;;;;;5031820;28;20439;-58
2022/03/03 11:15:19;;;;;;;2.70;2.50;;;18.20;37.30;;;;;;5032878;28;20439;-58
2022/03/03 11:17:45;;;;;;;2.83;2.70;;;18.20;37.30;;;;;;5032154;28;20502;-59
2022/03/03 11:20:15;;;;;;;2.50;2.40;;;18.20;37.40;;;;;;5029089;28;20452;-58
2022/03/03 11:22:42;;;;;;;3.40;3.20;;;18.20;37.30;;;;;;5027496;28;20478;-58
2022/03/03 11:25:10;;;;;;;4.20;4.00;;;18.20;37.40;;;;;;5028936;28;20980;-58
2022/03/03 11:27:42;;;;;;;2.80;2.60;;;18.10;37.30;;;;;;5030314;28;20541;-59
2022/03/03 11:30:31;;;;;;;3.13;2.90;;;18.20;37.30;;;;;;5028143;28;20448;-58
2022/03/03 11:33:24;;;;;;;3.00;2.80;;;18.20;37.40;;;;;;5027886;28;20474;-58
2022/03/03 11:35:58;;;;;;;3.33;3.03;;;18.20;37.30;;;;;;5030212;28;20443;-58
2022/03/03 11:38:26;;;;;;;3.17;2.97;;;18.10;37.30;;;;;;5029042;28;20452;-58
2022/03/03 11:40:58;;;;;;;2.73;2.63;;;18.10;37.20;;;;;;5029573;28;20427;-58
2022/03/03 11:43:24;;;;;;;3.03;2.83;;;18.10;37.30;;;;;;5030575;28;20431;-58
2022/03/03 11:45:59;;;;;;;3.17;2.97;;;18.20;37.40;;;;;;5028983;28;20806;-58
2022/03/03 11:48:36;;;;;;;3.23;3.03;;;18.10;37.40;;;;;;5030512;28;23401;-58
2022/03/03 11:51:34;;;;;;;2.90;2.70;;;18.20;37.50;;;;;;5029378;28;20448;-58
2022/03/03 11:54:10;;;;;;;3.03;2.83;;;18.20;37.50;;;;;;5027064;28;20784;-58
2022/03/03 11:57:04;;;;;;;3.00;2.80;;;18.10;37.50;;;;;;5023476;28;20801;-58
2022/03/03 11:59:35;;;;;;;3.00;2.80;;;18.20;37.60;;;;;;5028388;28;20427;-58
2022/03/03 12:02:01;;;;;;;2.93;2.73;;;18.10;37.60;;;;;;5027240;28;20444;-58
2022/03/03 12:04:27;;;;;;;3.00;2.80;;;18.20;37.60;;;;;;5027962;28;20432;-58
2022/03/03 12:06:54;;;;;;;3.17;2.97;;;18.10;37.60;;;;;;5024205;28;20289;-58
2022/03/03 12:09:24;;;;;;;3.60;2.80;;;18.10;37.60;;;;;;5029404;28;20492;-58
2022/03/03 12:12:27;;;;;;;2.70;2.50;;;18.10;37.60;;;;;;5029369;28;20423;-58
2022/03/03 12:14:59;;;;;;;3.17;2.97;;;18.20;37.60;;;;;;5026023;28;20463;-59
2022/03/03 12:17:58;;;;;;;3.20;3.00;;;18.20;37.60;;;;;;5029020;28;20427;-58
2022/03/03 12:20:24;;;;;;;3.20;3.00;;;18.10;37.60;;;;;;5028227;28;20427;-58
2022/03/03 12:23:09;;;;;;;4.17;2.90;;;18.20;37.60;;;;;;5027235;28;20449;-58
2022/03/03 12:25:50;;;;;;;3.17;2.97;;;18.20;37.60;;;;;;5025038;28;20231;-60
2022/03/03 12:28:40;;;;;;;2.80;2.60;;;18.20;37.60;;;;;;5028396;28;20465;-58
2022/03/03 12:31:25;;;;;;;2.90;2.70;;;18.20;37.60;;;;;;5024770;28;20522;-58
2022/03/03 12:34:01;;;;;;;3.00;2.80;;;18.20;37.60;;;;;;5026990;28;20484;-58
2022/03/03 12:36:29;;;;;;;3.13;2.93;;;18.20;37.60;;;;;;5026695;28;20445;-58
2022/03/03 12:38:55;;;;;;;2.90;2.70;;;18.20;37.60;;;;;;5042973;28;20978;-58
2022/03/03 12:41:24;;;;;;;3.50;3.20;;;18.20;37.60;;;;;;5027580;28;20444;-58
2022/03/03 12:43:50;;;;;;;3.17;2.97;;;18.20;38.40;;;;;;5027801;28;21053;-58
2022/03/03 12:46:16;;;;;;;2.77;2.57;;;18.20;37.60;;;;;;5022868;28;20431;-58
2022/03/03 12:48:46;;;;;;;3.00;2.80;;;18.20;37.60;;;;;;5024829;28;20317;-58
2022/03/03 12:51:11;;;;;;;3.07;2.87;;;18.20;37.60;;;;;;5026923;28;20447;-58
2022/03/03 12:53:47;;;;;;;2.87;2.67;;;18.20;37.60;;;;;;5026232;28;20533;-58